Terminal Aerodrome Forecast
Issued by NWS

Home | Current Version | Previous Version | Text Only | Print | Product List | Glossary On
Versions: 1 2 3 4 5 6 7 8 9 10 11 12 13 14 15 16 17 18 19 20 21 22 23 24 25 26 27 28 29 30 31 32 33 34 35 36 37 38 39
000
FTUS43 KGRB 242300 AAA
TAFRHI
TAF AMD
KRHI 242307Z 2423/2518 14009KT P6SM BKN022
     FM250600 17003KT 3SM BR VCSH BKN009 BKN070
      TEMPO 2507/2511 1SM TSRA OVC007CB
     FM251300 22005KT P6SM BKN090=

USA.gov is the U.S. government's official web portal to all federal, state and local government web resources and services.